Terminal Aerodrome Forecast
Issued by NWS

Home | Current Version | Previous Version | Text Only | Print | Product List | Glossary On
Versions: 1 2 3 4 5 6 7 8 9 10 11 12 13 14 15 16
000
FTUS46 KSEW 251700 RRA
TAFPAE
TAF
KPAE 251735Z 2518/2618 VRB05KT P6SM -RA SCT030 OVC070
      TEMPO 2518/2521 -RA BKN030 OVC080
     FM252100 15010KT P6SM -RA SCT020 OVC040
      TEMPO 2521/2601 4SM -RA BR OVC020
     FM260100 18018G27KT P6SM -RA OVC018
     FM261300 18014G22KT P6SM -SHRA BKN015 BKN035=

USA.gov is the U.S. government's official web portal to all federal, state and local government web resources and services.